Time;durP1;ratioP1;P1;durP2;ratioP2;P2;SDS_P1;SDS_P2;PMS_P1;PMS_P2;Temp;Humidity;BMP_temperature;BMP_pressure;BME280_temperature;BME280_humidity;BME280_pressure;Samples;Min_cycle;Max_cycle;Signal;HPM_P1;HPM_P2
2022/03/29 00:00:38;;;;;;;9.37;6.53;;;9.10;85.30;;;;;;5032201;28;20695;-62
2022/03/29 00:03:04;;;;;;;12.70;6.83;;;9.00;85.50;;;;;;5031999;28;20206;-62
2022/03/29 00:05:31;;;;;;;13.00;6.70;;;9.10;86.00;;;;;;5032262;28;20202;-62
2022/03/29 00:07:58;;;;;;;11.10;6.60;;;9.00;86.20;;;;;;5031496;28;20226;-62
2022/03/29 00:10:25;;;;;;;9.30;6.30;;;9.00;86.20;;;;;;5032388;28;20256;-62
2022/03/29 00:12:53;;;;;;;10.00;6.40;;;8.90;86.40;;;;;;5031661;28;20705;-62
2022/03/29 00:15:23;;;;;;;11.53;6.57;;;8.90;86.50;;;;;;5032018;28;20557;-62
2022/03/29 00:17:50;;;;;;;11.00;6.73;;;8.90;86.60;;;;;;5031873;28;20230;-62
2022/03/29 00:20:17;;;;;;;11.27;5.97;;;8.80;86.40;;;;;;5031979;28;20210;-62
2022/03/29 00:22:46;;;;;;;8.07;6.20;;;8.70;86.80;;;;;;5032213;28;20205;-62
2022/03/29 00:25:13;;;;;;;10.10;6.53;;;8.60;87.10;;;;;;5032136;28;20250;-62
2022/03/29 00:27:40;;;;;;;15.77;6.97;;;8.60;87.30;;;;;;5031929;28;20233;-62
2022/03/29 00:30:11;;;;;;;10.50;7.00;;;8.60;87.10;;;;;;5032001;28;20292;-62
2022/03/29 00:32:40;;;;;;;9.67;6.57;;;8.70;87.20;;;;;;5031757;28;20230;-62
2022/03/29 00:35:08;;;;;;;12.97;6.70;;;8.70;87.20;;;;;;5031874;28;20744;-62
2022/03/29 00:37:35;;;;;;;10.83;6.43;;;8.70;87.50;;;;;;5031653;28;20662;-62
2022/03/29 00:40:02;;;;;;;7.70;6.07;;;8.70;87.50;;;;;;5031876;28;20218;-62
2022/03/29 00:42:29;;;;;;;12.10;6.97;;;8.70;87.90;;;;;;5031960;28;20252;-62
2022/03/29 00:44:57;;;;;;;8.37;6.37;;;8.60;88.40;;;;;;5031591;28;20252;-62
2022/03/29 00:47:24;;;;;;;11.10;6.63;;;8.50;88.70;;;;;;5031402;28;20210;-62
2022/03/29 00:49:52;;;;;;;11.07;6.53;;;8.50;89.00;;;;;;5031929;28;20210;-62
2022/03/29 00:52:19;;;;;;;11.87;6.40;;;8.40;89.10;;;;;;5031789;28;20615;-62
2022/03/29 00:54:46;;;;;;;11.33;6.73;;;8.50;89.50;;;;;;5031407;28;20610;-62
2022/03/29 00:57:13;;;;;;;11.67;6.53;;;8.40;89.60;;;;;;5031736;28;20256;-62
2022/03/29 00:59:41;;;;;;;12.20;6.60;;;8.40;89.60;;;;;;5031492;28;20230;-62
2022/03/29 01:02:07;;;;;;;9.73;6.77;;;8.40;89.60;;;;;;5031979;28;20663;-62
2022/03/29 01:04:34;;;;;;;7.63;6.00;;;8.50;89.70;;;;;;5031541;28;20260;-63
2022/03/29 01:07:03;;;;;;;9.13;6.50;;;8.50;89.50;;;;;;5031703;28;20219;-63
2022/03/29 01:09:31;;;;;;;11.00;6.27;;;8.50;89.40;;;;;;5031666;28;20230;-63
2022/03/29 01:11:58;;;;;;;10.10;6.50;;;8.50;89.00;;;;;;5031563;28;20217;-62
2022/03/29 01:14:27;;;;;;;10.87;6.17;;;8.60;89.10;;;;;;5031178;28;20229;-62
2022/03/29 01:19:39;;;;;;;9.77;6.70;;;8.50;89.50;;;;;;5032799;28;20221;-63
2022/03/29 01:22:10;;;;;;;14.87;7.57;;;8.50;89.40;;;;;;5035215;28;20217;-63
2022/03/29 01:24:38;;;;;;;12.97;8.60;;;8.60;89.40;;;;;;5034837;28;20289;-63
2022/03/29 01:27:07;;;;;;;12.83;7.13;;;8.60;89.10;;;;;;5034981;28;20210;-63
2022/03/29 01:29:35;;;;;;;10.57;6.80;;;8.60;89.10;;;;;;5035136;28;20257;-63
2022/03/29 01:32:04;;;;;;;9.63;6.33;;;8.70;89.40;;;;;;5035089;28;20210;-63
2022/03/29 01:34:32;;;;;;;9.50;6.40;;;8.70;89.70;;;;;;5034767;28;20296;-63
2022/03/29 01:36:59;;;;;;;9.47;6.73;;;8.60;90.00;;;;;;5034869;28;20212;-63
2022/03/29 01:39:27;;;;;;;8.73;6.60;;;8.50;90.10;;;;;;5034669;28;20710;-63
2022/03/29 01:41:54;;;;;;;10.80;6.43;;;8.50;90.30;;;;;;5034969;28;20206;-63
2022/03/29 01:44:20;;;;;;;9.10;6.50;;;8.40;90.40;;;;;;5034744;28;20202;-63
2022/03/29 01:46:49;;;;;;;8.20;6.63;;;8.30;90.50;;;;;;5034716;28;20237;-63
2022/03/29 01:49:17;;;;;;;9.37;6.47;;;8.30;90.70;;;;;;5034961;28;20805;-63
2022/03/29 01:51:44;;;;;;;10.00;6.47;;;8.30;90.80;;;;;;5034738;28;20264;-63
2022/03/29 01:54:11;;;;;;;9.20;6.47;;;8.30;90.70;;;;;;5034232;28;20276;-63
2022/03/29 01:56:39;;;;;;;11.47;6.67;;;8.30;90.70;;;;;;5034937;28;20202;-63
2022/03/29 01:59:07;;;;;;;11.67;7.10;;;8.40;90.70;;;;;;5034880;28;20230;-63
2022/03/29 02:01:40;;;;;;;7.23;5.93;;;8.30;90.70;;;;;;5034800;28;20218;-63
2022/03/29 02:04:07;;;;;;;10.70;6.40;;;8.40;90.70;;;;;;5034503;28;20238;-63
2022/03/29 02:06:33;;;;;;;13.10;7.03;;;8.50;90.70;;;;;;5034551;28;20217;-63
2022/03/29 02:09:00;;;;;;;11.27;6.73;;;8.40;90.60;;;;;;5034514;28;20250;-63
2022/03/29 02:11:27;;;;;;;10.37;5.87;;;8.40;90.70;;;;;;5034495;28;20574;-63
2022/03/29 02:13:55;;;;;;;11.33;6.30;;;8.50;90.80;;;;;;5034064;28;20284;-63
2022/03/29 02:16:22;;;;;;;10.70;6.90;;;8.50;90.80;;;;;;5034191;28;20268;-63
2022/03/29 02:18:48;;;;;;;10.57;7.03;;;8.50;90.70;;;;;;5034116;28;20225;-63
2022/03/29 02:21:15;;;;;;;9.53;6.80;;;8.60;90.70;;;;;;5034037;28;20630;-63
2022/03/29 02:23:42;;;;;;;8.97;6.67;;;8.60;90.60;;;;;;5034001;28;20654;-63
2022/03/29 02:26:09;;;;;;;8.67;6.20;;;8.60;90.60;;;;;;5033920;28;20626;-63
2022/03/29 02:28:36;;;;;;;9.83;6.93;;;8.60;90.50;;;;;;5034037;28;20276;-63
2022/03/29 02:31:04;;;;;;;8.50;6.63;;;8.70;90.50;;;;;;5033422;28;20771;-63
2022/03/29 02:33:31;;;;;;;9.10;6.33;;;8.60;90.50;;;;;;5033610;28;20318;-63
2022/03/29 02:35:58;;;;;;;11.33;7.23;;;8.60;90.50;;;;;;5033722;28;20271;-63
2022/03/29 02:38:25;;;;;;;9.23;6.90;;;8.60;90.50;;;;;;5033966;28;20234;-63
2022/03/29 02:40:51;;;;;;;11.27;7.40;;;8.60;90.60;;;;;;5033725;28;20214;-63
2022/03/29 02:43:18;;;;;;;9.80;6.87;;;8.60;90.60;;;;;;5033616;28;20210;-63
2022/03/29 02:45:45;;;;;;;13.93;7.10;;;8.60;90.60;;;;;;5033658;28;20218;-63
2022/03/29 02:48:13;;;;;;;9.03;6.80;;;8.60;90.50;;;;;;5033299;28;20237;-63
2022/03/29 02:50:40;;;;;;;9.43;6.90;;;8.60;90.50;;;;;;5033838;28;20350;-63
2022/03/29 02:53:08;;;;;;;13.23;7.53;;;8.60;90.50;;;;;;5033294;28;20230;-63
2022/03/29 02:55:35;;;;;;;10.60;6.90;;;8.60;90.50;;;;;;5033509;28;20584;-63
2022/03/29 02:58:02;;;;;;;10.77;7.07;;;8.60;90.60;;;;;;5033423;28;20226;-63
2022/03/29 03:00:29;;;;;;;11.67;7.37;;;8.60;90.50;;;;;;5033661;28;20249;-65
2022/03/29 03:02:57;;;;;;;11.13;7.37;;;8.60;90.70;;;;;;5033082;28;20261;-63
2022/03/29 03:05:25;;;;;;;12.93;7.23;;;8.60;90.70;;;;;;5033246;28;20764;-63
2022/03/29 03:07:53;;;;;;;8.90;7.07;;;8.60;90.70;;;;;;5033045;28;20709;-63
2022/03/29 03:10:19;;;;;;;9.43;7.37;;;8.60;90.80;;;;;;5033153;28;20210;-63
2022/03/29 03:12:48;;;;;;;12.67;7.03;;;8.60;90.90;;;;;;5033234;28;20214;-63
2022/03/29 03:15:16;;;;;;;12.77;7.50;;;8.50;90.90;;;;;;5032745;28;20202;-63
2022/03/29 03:17:43;;;;;;;13.03;8.33;;;8.40;91.20;;;;;;5032949;28;20283;-63
2022/03/29 03:20:12;;;;;;;12.40;8.67;;;8.10;92.40;;;;;;5033119;28;20310;-62
2022/03/29 03:22:42;;;;;;;14.00;8.27;;;7.80;93.40;;;;;;5033111;28;20206;-63
2022/03/29 03:25:10;;;;;;;16.10;8.80;;;7.60;94.10;;;;;;5032617;28;20738;-64
2022/03/29 03:27:38;;;;;;;11.50;8.53;;;7.40;94.50;;;;;;5032693;28;20673;-63
2022/03/29 03:30:06;;;;;;;11.67;8.87;;;7.30;94.70;;;;;;5032859;28;20214;-63
2022/03/29 03:32:33;;;;;;;12.20;9.03;;;7.40;94.80;;;;;;5032703;28;20689;-62
2022/03/29 03:34:59;;;;;;;11.57;9.10;;;7.50;94.70;;;;;;5032591;28;20230;-63
2022/03/29 03:37:27;;;;;;;14.60;9.60;;;7.60;94.70;;;;;;5032715;28;20210;-63
2022/03/29 03:39:55;;;;;;;13.73;8.47;;;7.60;94.40;;;;;;5032712;28;20650;-62
2022/03/29 03:42:22;;;;;;;11.23;8.50;;;7.70;94.50;;;;;;5031809;28;20210;-62
2022/03/29 03:44:49;;;;;;;10.83;8.80;;;7.80;94.50;;;;;;5032368;28;20214;-62
2022/03/29 03:47:16;;;;;;;16.83;11.13;;;7.80;94.50;;;;;;5032671;28;20210;-62
2022/03/29 03:49:43;;;;;;;12.87;8.90;;;7.80;94.80;;;;;;5032655;28;20636;-63
2022/03/29 03:52:10;;;;;;;14.80;9.97;;;7.80;94.70;;;;;;5032489;28;20213;-63
2022/03/29 03:54:38;;;;;;;12.87;8.90;;;7.90;94.70;;;;;;5032195;28;20763;-62
2022/03/29 03:57:07;;;;;;;12.40;8.60;;;8.00;94.60;;;;;;5033082;28;20716;-63
2022/03/29 03:59:34;;;;;;;17.97;11.40;;;8.00;94.60;;;;;;5033838;28;20236;-63
2022/03/29 04:02:01;;;;;;;11.20;8.60;;;8.00;94.60;;;;;;5033640;28;20268;-63
2022/03/29 04:04:28;;;;;;;12.00;9.00;;;8.00;94.60;;;;;;5033227;28;20285;-63
2022/03/29 04:06:54;;;;;;;19.57;12.63;;;8.00;94.50;;;;;;5032625;28;20210;-63
2022/03/29 04:09:21;;;;;;;11.73;8.47;;;8.10;94.40;;;;;;5032195;28;20234;-63
2022/03/29 04:11:48;;;;;;;11.77;8.73;;;8.10;94.40;;;;;;5032199;28;20237;-63
2022/03/29 04:14:16;;;;;;;13.23;8.87;;;8.10;94.30;;;;;;5032030;28;20226;-63
2022/03/29 04:16:43;;;;;;;11.57;8.10;;;8.10;94.30;;;;;;5032225;28;20305;-63
2022/03/29 04:19:10;;;;;;;14.03;8.13;;;8.20;94.20;;;;;;5032070;28;20650;-63
2022/03/29 04:21:36;;;;;;;14.40;8.50;;;8.10;94.10;;;;;;5032196;28;20561;-63
2022/03/29 04:24:05;;;;;;;15.60;8.87;;;8.10;94.30;;;;;;5032340;28;20198;-63
2022/03/29 04:26:32;;;;;;;12.67;7.87;;;8.00;94.30;;;;;;5032004;28;20748;-63
2022/03/29 04:28:58;;;;;;;12.07;8.03;;;7.90;94.40;;;;;;5032003;28;20233;-63
2022/03/29 04:31:26;;;;;;;18.13;10.53;;;7.90;94.30;;;;;;5031985;28;20214;-63
2022/03/29 04:33:53;;;;;;;13.07;8.23;;;7.80;94.40;;;;;;5032046;28;20222;-63
2022/03/29 04:36:20;;;;;;;18.20;11.63;;;7.70;94.40;;;;;;5031926;28;20202;-63
2022/03/29 04:38:47;;;;;;;12.70;8.03;;;7.70;94.30;;;;;;5031549;28;20230;-63
2022/03/29 04:41:13;;;;;;;12.33;8.20;;;7.70;94.40;;;;;;5032062;28;20239;-63
2022/03/29 04:43:40;;;;;;;12.50;8.30;;;7.70;94.20;;;;;;5031943;28;20202;-63
2022/03/29 04:46:07;;;;;;;14.33;8.27;;;7.80;94.20;;;;;;5031760;28;20259;-63
2022/03/29 04:48:35;;;;;;;13.30;8.07;;;7.80;94.10;;;;;;5031619;28;20273;-62
2022/03/29 04:51:01;;;;;;;13.80;8.10;;;7.70;94.10;;;;;;5031675;28;20622;-63
2022/03/29 04:53:28;;;;;;;13.93;7.73;;;7.70;94.40;;;;;;5032848;28;20208;-63
2022/03/29 04:55:56;;;;;;;9.77;7.80;;;7.60;94.60;;;;;;5035860;28;20214;-63
2022/03/29 04:58:23;;;;;;;15.50;8.30;;;7.50;94.70;;;;;;5035742;28;20229;-64
2022/03/29 05:00:49;;;;;;;11.63;8.00;;;7.50;94.80;;;;;;5035744;28;20252;-64
2022/03/29 05:03:16;;;;;;;14.67;8.33;;;7.50;94.80;;;;;;5035350;28;20637;-64
2022/03/29 05:05:45;;;;;;;13.63;8.10;;;7.50;94.90;;;;;;5035579;28;20301;-64
2022/03/29 05:08:11;;;;;;;14.67;8.60;;;7.50;94.90;;;;;;5035709;28;20222;-64
2022/03/29 05:10:38;;;;;;;12.27;7.63;;;7.60;94.90;;;;;;5035727;28;20210;-64
2022/03/29 05:13:05;;;;;;;11.90;8.13;;;7.50;94.80;;;;;;5035667;28;20218;-64
2022/03/29 05:15:32;;;;;;;12.67;8.57;;;7.60;94.80;;;;;;5035207;28;20547;-64
2022/03/29 05:17:59;;;;;;;12.87;8.13;;;7.60;94.80;;;;;;5035241;28;20231;-64
2022/03/29 05:20:26;;;;;;;15.87;8.07;;;7.70;94.80;;;;;;5035465;28;20206;-64
2022/03/29 05:22:56;;;;;;;13.20;8.23;;;7.80;94.70;;;;;;5035448;28;20210;-64
2022/03/29 05:25:24;;;;;;;12.07;7.87;;;7.80;94.60;;;;;;5035159;28;20293;-64
2022/03/29 05:27:52;;;;;;;10.03;7.67;;;7.90;94.90;;;;;;5035178;28;20237;-63
2022/03/29 05:30:20;;;;;;;11.43;8.27;;;8.00;94.50;;;;;;5034972;28;20213;-63
2022/03/29 05:32:50;;;;;;;11.97;8.00;;;8.10;94.40;;;;;;5034991;28;20241;-65
2022/03/29 05:35:17;;;;;;;19.27;9.03;;;8.20;94.30;;;;;;5034786;28;20279;-64
2022/03/29 05:37:43;;;;;;;14.30;8.50;;;8.20;94.20;;;;;;5034999;28;20622;-64
2022/03/29 05:40:12;;;;;;;15.90;8.20;;;8.30;94.10;;;;;;5035031;28;20252;-64
2022/03/29 05:42:39;;;;;;;14.73;8.50;;;8.30;94.00;;;;;;5034883;28;20256;-64
2022/03/29 05:45:06;;;;;;;18.07;9.03;;;8.40;93.90;;;;;;5034489;28;20293;-64
2022/03/29 05:50:17;;;;;;;13.73;8.07;;;8.50;94.10;;;;;;5034926;28;20288;-64
2022/03/29 05:52:44;;;;;;;16.00;7.77;;;8.60;93.80;;;;;;5034549;28;20582;-64
2022/03/29 05:55:12;;;;;;;13.57;8.13;;;8.70;93.60;;;;;;5034320;28;20222;-64
2022/03/29 05:57:39;;;;;;;15.43;8.50;;;8.80;93.40;;;;;;5034471;28;20233;-64
2022/03/29 06:00:10;;;;;;;19.53;8.60;;;9.00;93.10;;;;;;5034289;28;20717;-64
2022/03/29 06:02:37;;;;;;;15.00;8.50;;;9.10;93.00;;;;;;5034899;28;20245;-64
2022/03/29 06:05:04;;;;;;;13.57;8.30;;;9.20;92.70;;;;;;5033849;28;20207;-64
2022/03/29 06:07:30;;;;;;;21.80;7.47;;;9.40;92.50;;;;;;5034978;28;20240;-64
2022/03/29 06:09:57;;;;;;;21.27;8.90;;;9.60;92.10;;;;;;5035518;28;20666;-64
2022/03/29 06:12:25;;;;;;;14.10;7.90;;;9.90;91.80;;;;;;5035558;28;20634;-64
2022/03/29 06:14:52;;;;;;;14.30;8.40;;;10.20;90.90;;;;;;5035162;28;20234;-64
2022/03/29 06:17:18;;;;;;;10.73;7.77;;;10.60;90.50;;;;;;5034817;28;20648;-64
2022/03/29 06:19:45;;;;;;;16.23;8.13;;;10.80;90.10;;;;;;5034531;28;20214;-64
2022/03/29 06:22:12;;;;;;;11.03;8.00;;;11.00;89.60;;;;;;5034484;28;20202;-63
2022/03/29 06:24:39;;;;;;;15.83;7.90;;;11.30;88.60;;;;;;5034536;28;20229;-63
2022/03/29 06:27:06;;;;;;;16.40;8.60;;;11.40;87.70;;;;;;5034490;28;20214;-64
2022/03/29 06:29:34;;;;;;;14.83;8.00;;;11.60;87.30;;;;;;5034720;28;20642;-63
2022/03/29 06:32:01;;;;;;;17.57;9.23;;;11.80;87.00;;;;;;5034445;28;20290;-63
2022/03/29 06:34:29;;;;;;;18.20;8.40;;;12.10;86.30;;;;;;5033720;28;20222;-62
2022/03/29 06:36:55;;;;;;;9.67;7.70;;;12.30;85.90;;;;;;5033570;28;20214;-61
2022/03/29 06:39:22;;;;;;;14.70;8.23;;;12.60;85.20;;;;;;5033585;28;20229;-62
2022/03/29 06:41:50;;;;;;;12.47;9.10;;;12.90;84.80;;;;;;5033518;28;20248;-61
2022/03/29 06:44:17;;;;;;;17.37;8.63;;;13.20;84.80;;;;;;5033559;28;20206;-61
2022/03/29 06:46:46;;;;;;;17.00;9.10;;;13.50;84.40;;;;;;5033536;28;20237;-60
2022/03/29 06:49:13;;;;;;;17.33;8.13;;;13.70;83.20;;;;;;5033591;28;20234;-60
2022/03/29 06:51:41;;;;;;;23.10;9.03;;;13.50;83.20;;;;;;5034616;28;20217;-61
2022/03/29 06:54:07;;;;;;;17.27;8.43;;;13.20;83.10;;;;;;5033007;28;20622;-61
2022/03/29 06:56:34;;;;;;;20.63;9.60;;;13.20;83.40;;;;;;5033701;28;20210;-61
2022/03/29 06:59:01;;;;;;;32.00;10.30;;;13.00;83.50;;;;;;5033408;28;20230;-61
2022/03/29 07:01:28;;;;;;;22.77;9.87;;;13.00;83.70;;;;;;5033329;28;20219;-60
2022/03/29 07:03:59;;;;;;;17.90;9.53;;;13.10;83.50;;;;;;5033094;28;20257;-60
2022/03/29 07:06:30;;;;;;;19.20;9.40;;;13.40;82.70;;;;;;5032920;28;20202;-60
2022/03/29 07:11:41;;;;;;;16.90;9.43;;;13.60;81.90;;;;;;5033238;28;20204;-61
2022/03/29 07:14:08;;;;;;;18.57;10.47;;;13.80;81.90;;;;;;5033023;28;20207;-60
2022/03/29 07:16:35;;;;;;;17.97;9.73;;;14.10;81.20;;;;;;5032052;28;20619;-61
2022/03/29 07:19:03;;;;;;;21.17;10.00;;;14.50;80.50;;;;;;5032281;28;20296;-59
2022/03/29 07:21:30;;;;;;;20.30;11.07;;;14.70;79.10;;;;;;5032760;28;20302;-64
2022/03/29 07:23:57;;;;;;;21.60;10.10;;;14.80;79.60;;;;;;5032618;28;20300;-64
2022/03/29 07:26:23;;;;;;;19.63;10.23;;;14.90;79.20;;;;;;5033021;28;20206;-63
2022/03/29 07:28:50;;;;;;;20.27;11.17;;;15.10;78.40;;;;;;5032598;28;20222;-63
2022/03/29 07:31:16;;;;;;;21.57;11.40;;;15.40;77.70;;;;;;5032547;28;20214;-60
2022/03/29 07:33:43;;;;;;;15.33;10.37;;;15.70;75.90;;;;;;5032175;28;20240;-60
2022/03/29 07:36:11;;;;;;;19.60;9.90;;;16.00;75.40;;;;;;5032642;28;20230;-60
2022/03/29 07:38:38;;;;;;;17.60;9.47;;;16.10;75.00;;;;;;5032494;28;20245;-60
2022/03/29 07:41:04;;;;;;;14.70;9.77;;;16.30;74.80;;;;;;5032364;28;20699;-60
2022/03/29 07:43:31;;;;;;;16.57;9.27;;;16.50;74.40;;;;;;5031948;28;20683;-60
2022/03/29 07:45:58;;;;;;;21.90;10.30;;;16.60;73.90;;;;;;5032309;28;20210;-60
2022/03/29 07:48:25;;;;;;;15.70;9.53;;;16.80;74.20;;;;;;5032679;28;20325;-60
2022/03/29 07:50:52;;;;;;;17.17;10.27;;;16.70;73.40;;;;;;5032274;28;20621;-60
2022/03/29 07:53:22;;;;;;;18.70;10.20;;;16.60;73.00;;;;;;5032315;28;20229;-60
2022/03/29 07:55:50;;;;;;;17.13;9.43;;;16.50;72.90;;;;;;5032040;28;20236;-60
2022/03/29 07:58:17;;;;;;;15.80;9.57;;;16.30;73.10;;;;;;5032245;28;20655;-60
2022/03/29 08:00:46;;;;;;;14.57;10.00;;;16.30;74.20;;;;;;5032094;28;20289;-60
2022/03/29 08:03:15;;;;;;;20.77;9.18;;;16.70;73.70;;;;;;5032447;28;20213;-60
2022/03/29 08:05:43;;;;;;;24.80;12.70;;;17.20;72.40;;;;;;5032026;28;20225;-60
2022/03/29 08:08:13;;;;;;;19.97;9.97;;;17.70;70.80;;;;;;5031976;28;20226;-60
2022/03/29 08:10:42;;;;;;;16.23;10.27;;;18.20;69.40;;;;;;5032124;28;20293;-59
2022/03/29 08:13:10;;;;;;;17.80;10.05;;;18.30;67.90;;;;;;5032047;28;20202;-60
2022/03/29 08:15:37;;;;;;;15.60;9.82;;;18.50;66.80;;;;;;5031890;28;20234;-60
2022/03/29 08:18:04;;;;;;;14.60;9.00;;;18.60;65.60;;;;;;5032034;28;20226;-60
2022/03/29 08:20:31;;;;;;;14.27;9.25;;;18.70;64.70;;;;;;5031934;28;20217;-60
2022/03/29 08:23:00;;;;;;;13.60;9.43;;;18.60;64.80;;;;;;5032038;28;20259;-60
2022/03/29 08:25:31;;;;;;;13.75;9.40;;;18.70;64.40;;;;;;5031542;28;20280;-60
2022/03/29 08:27:59;;;;;;;15.27;9.27;;;18.70;63.70;;;;;;5031332;28;20233;-60
2022/03/29 08:30:28;;;;;;;13.73;9.55;;;18.80;63.70;;;;;;5032024;28;20674;-59
2022/03/29 08:32:55;;;;;;;14.23;9.48;;;19.00;62.60;;;;;;5032256;28;20203;-60
2022/03/29 08:35:22;;;;;;;12.73;9.77;;;18.70;62.50;;;;;;5032419;28;20840;-59
2022/03/29 08:37:49;;;;;;;14.98;9.30;;;18.30;64.50;;;;;;5032464;28;20230;-60
2022/03/29 08:40:17;;;;;;;16.80;9.55;;;18.20;65.60;;;;;;5032490;28;20408;-60
2022/03/29 08:42:46;;;;;;;14.02;9.48;;;18.50;65.00;;;;;;5032328;28;20237;-60
2022/03/29 08:45:16;;;;;;;14.73;8.95;;;19.00;64.20;;;;;;5032252;28;20259;-60
2022/03/29 08:47:44;;;;;;;15.10;10.15;;;19.20;64.10;;;;;;5031399;28;21053;-62
2022/03/29 08:50:13;;;;;;;12.10;9.45;;;19.40;63.40;;;;;;5029530;28;20203;-60
2022/03/29 08:52:42;;;;;;;15.75;9.93;;;19.40;62.90;;;;;;5030584;28;20210;-60
2022/03/29 08:55:09;;;;;;;16.20;10.27;;;18.60;64.30;;;;;;5031326;28;20230;-60
2022/03/29 08:57:37;;;;;;;16.92;10.25;;;18.20;65.50;;;;;;5031396;28;20202;-60
2022/03/29 09:00:05;;;;;;;15.77;10.05;;;17.80;66.30;;;;;;5031341;28;20210;-60
2022/03/29 09:02:36;;;;;;;15.00;9.90;;;18.00;64.20;;;;;;5031220;28;20207;-60
2022/03/29 09:05:12;;;;;;;13.73;8.90;;;18.10;64.30;;;;;;5030986;28;20654;-60
2022/03/29 09:07:51;;;;;;;16.58;10.43;;;18.60;63.80;;;;;;5030668;28;20698;-60
2022/03/29 09:10:18;;;;;;;18.70;10.45;;;19.10;61.80;;;;;;5031560;28;20292;-59
2022/03/29 09:12:45;;;;;;;15.85;10.18;;;19.70;60.20;;;;;;5031321;28;20206;-59
2022/03/29 09:15:12;;;;;;;17.85;10.00;;;20.10;59.70;;;;;;5031099;28;20240;-63
2022/03/29 09:17:42;;;;;;;14.23;9.73;;;20.40;58.70;;;;;;5030805;28;20230;-61
2022/03/29 09:20:11;;;;;;;13.38;9.90;;;20.60;57.90;;;;;;5030917;28;20210;-62
2022/03/29 09:22:44;;;;;;;15.25;9.85;;;20.70;57.10;;;;;;5031221;28;20210;-61
2022/03/29 09:25:14;;;;;;;14.43;9.80;;;21.00;57.10;;;;;;5031191;28;20207;-63
2022/03/29 09:27:57;;;;;;;16.52;9.70;;;20.90;56.80;;;;;;5031121;28;20249;-61
2022/03/29 09:30:25;;;;;;;15.43;10.60;;;20.80;57.00;;;;;;5030724;28;20210;-61
2022/03/29 09:33:00;;;;;;;18.63;11.07;;;20.70;57.30;;;;;;5031344;28;20206;-61
2022/03/29 09:35:27;;;;;;;18.55;11.35;;;20.60;57.30;;;;;;5030869;28;20229;-62
2022/03/29 09:37:54;;;;;;;16.48;11.20;;;20.70;57.00;;;;;;5030961;28;20309;-62
2022/03/29 09:40:21;;;;;;;19.98;11.40;;;20.90;56.70;;;;;;5032053;28;20210;-62
2022/03/29 09:43:02;;;;;;;17.77;11.32;;;20.80;56.70;;;;;;5034113;28;20213;-63
2022/03/29 09:45:47;;;;;;;16.15;11.27;;;20.70;57.10;;;;;;5034708;28;20626;-61
2022/03/29 09:48:33;;;;;;;18.63;11.55;;;20.70;57.10;;;;;;5034789;28;20324;-65
2022/03/29 09:51:21;;;;;;;21.25;11.55;;;20.90;57.60;;;;;;5034704;28;20333;-61
2022/03/29 09:53:51;;;;;;;21.00;11.50;;;21.10;57.20;;;;;;5034170;28;20210;-62
2022/03/29 09:56:24;;;;;;;17.35;11.73;;;21.30;57.00;;;;;;5033990;28;20682;-61
2022/03/29 09:59:02;;;;;;;19.95;11.57;;;21.40;57.00;;;;;;5034458;28;20257;-62
2022/03/29 10:01:29;;;;;;;21.23;12.23;;;21.40;56.30;;;;;;5034645;28;20210;-64
2022/03/29 10:03:58;;;;;;;19.20;11.82;;;21.10;57.20;;;;;;5034545;28;20698;-62
2022/03/29 10:06:25;;;;;;;20.00;11.63;;;21.10;57.20;;;;;;5034327;28;20203;-64
2022/03/29 10:11:39;;;;;;;21.70;12.88;;;21.20;57.00;;;;;;5034324;28;20216;-62
2022/03/29 10:14:07;;;;;;;20.05;13.15;;;21.00;57.60;;;;;;5033898;28;20257;-61
2022/03/29 10:16:34;;;;;;;18.77;12.02;;;21.10;57.80;;;;;;5034234;28;20320;-62
2022/03/29 10:19:03;;;;;;;19.83;13.07;;;21.10;58.20;;;;;;5034016;28;20261;-64
2022/03/29 10:21:30;;;;;;;22.02;12.90;;;21.20;57.40;;;;;;5034230;28;20210;-61
2022/03/29 10:23:57;;;;;;;19.50;12.57;;;21.10;57.80;;;;;;5033830;28;20618;-62
2022/03/29 10:26:26;;;;;;;19.35;13.50;;;21.00;57.80;;;;;;5034039;28;20199;-61
2022/03/29 10:28:53;;;;;;;19.35;13.05;;;20.90;58.00;;;;;;5033464;28;20237;-63
2022/03/29 10:31:31;;;;;;;20.33;12.80;;;21.00;58.00;;;;;;5033503;28;20206;-61
2022/03/29 10:34:14;;;;;;;20.88;13.23;;;21.10;57.30;;;;;;5032764;28;20692;-63
2022/03/29 10:37:14;;;;;;;19.92;13.32;;;21.40;58.10;;;;;;5033633;28;20230;-65
2022/03/29 10:39:53;;;;;;;20.23;12.82;;;21.30;57.80;;;;;;5030969;28;20281;-62
2022/03/29 10:42:36;;;;;;;19.73;14.07;;;20.90;58.00;;;;;;5033674;28;20292;-65
2022/03/29 10:45:19;;;;;;;20.58;12.85;;;20.70;58.40;;;;;;5033114;28;20263;-64
2022/03/29 10:47:48;;;;;;;20.83;13.05;;;20.80;58.60;;;;;;5031377;28;20341;-62
2022/03/29 10:50:17;;;;;;;21.13;12.65;;;20.70;58.20;;;;;;5033927;28;20214;-64
2022/03/29 10:52:46;;;;;;;18.95;12.75;;;20.60;57.70;;;;;;5032929;28;20209;-65
2022/03/29 10:55:34;;;;;;;19.30;12.43;;;20.40;57.40;;;;;;5032956;28;20667;-66
2022/03/29 10:58:09;;;;;;;21.40;12.95;;;20.60;58.20;;;;;;5026875;28;20222;-64
2022/03/29 11:00:37;;;;;;;20.52;12.77;;;20.60;57.50;;;;;;5033424;28;20202;-62
2022/03/29 11:03:12;;;;;;;19.30;12.82;;;20.40;57.90;;;;;;5032692;28;20574;-60
2022/03/29 11:06:06;;;;;;;19.77;13.60;;;20.20;58.10;;;;;;5032868;28;20233;-60
2022/03/29 11:08:33;;;;;;;20.08;13.63;;;19.80;58.60;;;;;;5032455;28;20313;-61
2022/03/29 11:11:00;;;;;;;16.58;12.70;;;19.70;59.10;;;;;;5032988;28;20214;-61
2022/03/29 11:13:28;;;;;;;19.10;13.13;;;20.00;58.70;;;;;;5032744;28;20213;-61
2022/03/29 11:16:00;;;;;;;22.38;13.75;;;20.40;58.30;;;;;;5032414;28;20226;-60
2022/03/29 11:18:47;;;;;;;21.30;13.85;;;20.60;57.60;;;;;;5032679;28;20607;-61
2022/03/29 11:21:32;;;;;;;20.60;13.50;;;20.60;57.20;;;;;;5032836;28;20233;-61
2022/03/29 11:24:00;;;;;;;20.40;13.35;;;20.60;56.10;;;;;;5032470;28;20304;-67
2022/03/29 11:26:27;;;;;;;19.40;13.57;;;21.00;56.00;;;;;;5032847;28;20202;-64
2022/03/29 11:28:56;;;;;;;24.83;13.95;;;21.20;54.90;;;;;;5032517;28;20234;-64
2022/03/29 11:31:24;;;;;;;23.65;14.38;;;21.10;54.90;;;;;;5032535;28;20293;-64
2022/03/29 11:33:55;;;;;;;22.77;14.13;;;20.70;55.10;;;;;;5032232;28;20207;-65
2022/03/29 11:36:22;;;;;;;22.30;14.48;;;20.30;55.70;;;;;;5033112;28;20265;-67
2022/03/29 11:38:50;;;;;;;22.00;13.82;;;20.10;55.80;;;;;;5032297;28;20225;-61
2022/03/29 11:41:22;;;;;;;20.85;14.55;;;20.30;55.60;;;;;;5032842;28;20213;-62
2022/03/29 11:43:53;;;;;;;21.98;13.93;;;20.60;56.10;;;;;;5032630;28;20300;-62
2022/03/29 11:46:20;;;;;;;21.52;14.70;;;20.60;56.10;;;;;;5032764;28;20260;-63
2022/03/29 11:48:49;;;;;;;23.05;15.50;;;20.50;55.80;;;;;;5032190;28;20745;-62
2022/03/29 11:51:17;;;;;;;23.73;15.50;;;20.50;55.60;;;;;;5032768;28;20297;-62
2022/03/29 11:53:44;;;;;;;22.13;14.35;;;20.70;55.80;;;;;;5033159;28;20206;-62
2022/03/29 11:56:13;;;;;;;19.95;14.38;;;21.00;55.60;;;;;;5032417;28;20226;-62
2022/03/29 11:58:41;;;;;;;23.92;15.35;;;21.20;55.50;;;;;;5032526;28;20253;-63
2022/03/29 12:01:11;;;;;;;26.30;15.23;;;21.10;54.60;;;;;;5033187;28;20280;-62
2022/03/29 12:03:39;;;;;;;21.35;14.05;;;21.00;54.50;;;;;;5031836;28;20267;-63
2022/03/29 12:06:13;;;;;;;23.08;14.73;;;20.80;55.40;;;;;;5032215;28;20260;-61
2022/03/29 12:09:01;;;;;;;25.38;14.65;;;20.90;56.30;;;;;;5032145;28;20253;-63
2022/03/29 12:11:30;;;;;;;23.90;15.15;;;20.90;55.70;;;;;;5032392;28;20229;-62
2022/03/29 12:14:07;;;;;;;21.50;13.88;;;20.80;55.60;;;;;;5031887;28;20241;-61
2022/03/29 12:16:36;;;;;;;21.77;14.90;;;21.00;55.50;;;;;;5031976;28;20222;-61
2022/03/29 12:19:07;;;;;;;24.48;16.10;;;21.40;55.00;;;;;;5031958;28;20227;-61
2022/03/29 12:21:34;;;;;;;23.90;14.35;;;21.70;54.30;;;;;;5032401;28;20887;-61
2022/03/29 12:24:04;;;;;;;22.42;15.57;;;21.80;54.40;;;;;;5031957;28;20206;-63
2022/03/29 12:26:33;;;;;;;21.50;15.40;;;21.60;54.20;;;;;;5034519;28;20250;-61
2022/03/29 12:29:01;;;;;;;23.85;14.32;;;21.20;54.90;;;;;;5031778;28;20276;-61
2022/03/29 12:31:29;;;;;;;22.17;14.57;;;20.90;55.10;;;;;;5031787;28;20214;-61
2022/03/29 12:33:57;;;;;;;22.38;14.65;;;20.60;55.40;;;;;;5031552;28;20264;-61
2022/03/29 12:36:24;;;;;;;24.45;15.15;;;20.70;55.50;;;;;;5032080;28;20253;-61
2022/03/29 12:38:52;;;;;;;21.40;15.07;;;21.10;55.40;;;;;;5031852;28;20230;-61
2022/03/29 12:41:37;;;;;;;21.42;15.02;;;21.30;55.50;;;;;;5032048;28;20264;-60
2022/03/29 12:44:06;;;;;;;25.80;14.43;;;21.50;55.10;;;;;;5031806;28;20210;-61
2022/03/29 12:46:33;;;;;;;23.60;15.18;;;21.80;54.80;;;;;;5032286;28;20233;-61
2022/03/29 12:49:00;;;;;;;18.92;13.90;;;22.10;53.70;;;;;;5032346;28;20237;-61
2022/03/29 12:51:28;;;;;;;25.63;15.55;;;22.10;53.60;;;;;;5031969;28;20208;-61
2022/03/29 12:54:00;;;;;;;20.50;15.35;;;22.30;53.70;;;;;;5031498;28;20217;-61
2022/03/29 12:56:38;;;;;;;23.60;14.77;;;22.50;53.20;;;;;;5031577;28;20783;-61